Aeroporto :
LOGIN :

Iscrizione | Disclaimer

   EN    FR    IT 

 










Sommario :    VFR   VFR Marginale   IFR   IFR Intensivo   IFR Molto Intensivo
Visibilità : 
Base nubi : 
>= 8 km
>= 3000ft
5 / 8 km
1000 / 3000 ft
1500m / 5 km
500 / 1000 ft
800 / 1500m
200 / 500 ft
< 800m
< 200 ft
Simboli :   Temporali  Nebbia  Neve Forte  Precipitazioni Forti  Vento > 20 kt
SIGMETs :   Varie  Temporali  Ghiacco  Turbolenza  Onda orograficha  Ceneri Vulcaniche






- Altitudine del aeroporto : 28 ft
- Codice IATA : SOZ


LFKS - Solenzara

ULTIMO METAR :
  • 140630Z AUTO 27008KT CAVOK 10/03 Q1005

METARs OBSOLETI :
  • 140600Z AUTO 27007KT 240V300 CAVOK 10/03 Q1005
  • 140530Z AUTO 27007KT 240V300 CAVOK 10/04 Q1005
  • 140500Z AUTO 27008KT CAVOK 10/04 Q1005
  • 140430Z AUTO 27006KT 250V310 CAVOK 10/04 Q1005
  • 140400Z AUTO 27008KT 250V310 CAVOK 10/03 Q1005

TAF AMD TAF LFKS
Valido dal 14 a 06 ore il 15 a 03 ore UTC


140600Z 1406/1503 27007KT CAVOK
BECMG 1418/1420 20010KT BKN025
TEMPO 1500/1503 18015G25KT 4000 -SHRA SCT010 BKN020TCU
PROB30
TEMPO 1500/1503 -TSRA BKN010 BKN020CB



MetMap, La meteo Aeronautica in un colpo d'occhio ! - Copyright ORBIFLY Dicembre 2007 - Disclaimer

ORBIFLY MET'MAP TEAM :

Programmazione e sviluppo : Alexandra Zaïnal
Concezione e sviluppo : Baudouin d'Aumeries
Co-Programmazione e sviluppo : Marc-Olivier Méhu
Supporto tecnico e logistico : Manuel Goepfert
Aiuto per la traduzione : Arnaldo La Scala

Contatto : metmap@orbifly.com




FONTI E CREDITI :

   NOAA